createdAt,value
2022-09-09T00:01:07.310Z,1.90
2022-09-09T00:06:22.107Z,2.20
2022-09-09T00:12:03.724Z,2.10
2022-09-09T00:17:12.729Z,2.00
2022-09-09T00:22:24.150Z,1.90
2022-09-09T00:27:38.476Z,2.00
2022-09-09T00:32:39.600Z,2.00
2022-09-09T00:42:44.937Z,1.70
2022-09-09T00:47:54.315Z,2.00
2022-09-09T00:53:25.215Z,2.20
2022-09-09T00:58:27.770Z,2.00
2022-09-09T01:03:49.508Z,2.00
2022-09-09T01:09:15.961Z,2.00
2022-09-09T01:14:27.553Z,1.70
2022-09-09T01:19:39.572Z,1.90
2022-09-09T01:25:18.368Z,1.80
2022-09-09T01:30:20.925Z,1.90
2022-09-09T01:35:52.011Z,2.10
2022-09-09T01:40:54.104Z,2.00
2022-09-09T01:45:59.467Z,2.00
2022-09-09T01:51:00.665Z,1.80
2022-09-09T02:01:30.673Z,2.00
2022-09-09T02:06:37.951Z,2.30
2022-09-09T02:11:40.352Z,1.90
2022-09-09T02:16:47.017Z,1.80
2022-09-09T02:21:48.949Z,2.00
2022-09-09T02:26:54.573Z,1.80
2022-09-09T02:32:02.286Z,1.70
2022-09-09T02:37:06.802Z,2.00
2022-09-09T02:42:08.911Z,1.90
2022-09-09T02:47:55.349Z,1.70
2022-09-09T02:53:02.014Z,1.90
2022-09-09T02:58:07.342Z,2.10
2022-09-09T03:03:09.767Z,1.80
2022-09-09T03:08:11.485Z,2.10
2022-09-09T03:13:15.525Z,2.20
2022-09-09T03:18:16.752Z,2.20
2022-09-09T03:28:19.320Z,2.60
2022-09-09T03:33:20.697Z,2.30
2022-09-09T03:48:28.659Z,2.20
2022-09-09T03:53:29.978Z,2.50
2022-09-09T04:03:32.348Z,2.00
2022-09-09T04:13:38.846Z,1.60
2022-09-09T04:18:40.036Z,2.10
2022-09-09T04:28:43.870Z,2.00
2022-09-09T04:33:46.066Z,2.10
2022-09-09T04:38:49.142Z,2.00
2022-09-09T04:43:50.546Z,2.00
2022-09-09T04:48:53.329Z,2.50
2022-09-09T04:53:54.507Z,2.50
2022-09-09T04:58:56.523Z,2.30
2022-09-09T05:09:00.092Z,2.00
2022-09-09T05:14:01.498Z,1.80
2022-09-09T05:19:04.359Z,2.30
2022-09-09T05:24:06.993Z,2.00
2022-09-09T05:29:08.521Z,2.20
2022-09-09T05:34:11.519Z,2.10
2022-09-09T05:39:12.670Z,2.40
2022-09-09T05:44:13.819Z,2.30
2022-09-09T05:54:18.000Z,2.30
2022-09-09T05:59:19.703Z,2.60
2022-09-09T06:04:22.808Z,1.80
2022-09-09T06:09:23.988Z,2.20
2022-09-09T06:14:27.643Z,2.40
2022-09-09T06:19:30.979Z,2.10
2022-09-09T06:24:33.178Z,2.30
2022-09-09T06:29:34.343Z,2.50
2022-09-09T06:34:36.711Z,2.50
2022-09-09T06:39:38.085Z,2.70
2022-09-09T06:44:39.305Z,2.50
2022-09-09T06:49:43.756Z,2.70
2022-09-09T06:54:46.646Z,2.60
2022-09-09T06:59:47.801Z,2.50
2022-09-09T07:09:52.399Z,3.30
2022-09-09T07:14:53.580Z,3.50
2022-09-09T07:24:56.075Z,3.10
2022-09-09T07:29:57.707Z,3.60
2022-09-09T07:34:58.917Z,4.30
2022-09-09T07:45:01.226Z,3.90
2022-09-09T07:55:04.855Z,4.40
2022-09-09T08:00:06.968Z,4.60
2022-09-09T08:05:08.335Z,4.80
2022-09-09T08:10:10.010Z,5.30
2022-09-09T08:15:11.446Z,4.70
2022-09-09T08:20:13.103Z,4.50
2022-09-09T08:25:14.780Z,5.60
2022-09-09T08:30:18.996Z,5.10
2022-09-09T08:40:29.534Z,4.70
2022-09-09T08:45:43.216Z,4.40
2022-09-09T08:50:47.064Z,3.90
2022-09-09T08:55:53.429Z,4.80
2022-09-09T09:01:19.594Z,4.50
2022-09-09T09:06:36.871Z,4.40
2022-09-09T09:11:41.054Z,4.60
2022-09-09T09:17:03.875Z,4.00
2022-09-09T09:22:25.536Z,3.70
2022-09-09T09:27:40.582Z,4.30
2022-09-09T09:32:51.866Z,4.40
2022-09-09T09:43:20.631Z,4.70
2022-09-09T09:48:22.633Z,3.30
2022-09-09T09:53:32.482Z,4.20
2022-09-09T09:58:50.295Z,3.00
2022-09-09T10:03:55.154Z,3.50
2022-09-09T10:08:56.640Z,3.90
2022-09-09T10:14:35.663Z,3.30
2022-09-09T10:19:38.681Z,3.50
2022-09-09T10:24:57.079Z,3.40
2022-09-09T10:30:10.518Z,3.20
2022-09-09T10:35:33.537Z,3.40
2022-09-09T10:40:53.457Z,3.40
2022-09-09T10:46:13.072Z,2.60
2022-09-09T10:51:21.505Z,3.70
2022-09-09T10:56:24.300Z,3.60
2022-09-09T11:01:49.553Z,4.10
2022-09-09T11:06:55.774Z,3.80
2022-09-09T11:11:59.718Z,3.40
2022-09-09T11:17:05.799Z,3.40
2022-09-09T11:22:20.237Z,4.00
2022-09-09T11:27:32.381Z,3.60
2022-09-09T11:33:05.521Z,3.70
2022-09-09T11:38:28.031Z,6.60
2022-09-09T11:43:39.253Z,4.30
2022-09-09T11:48:59.343Z,4.40
2022-09-09T11:54:23.106Z,4.40
2022-09-09T11:59:24.871Z,4.20
2022-09-09T12:04:25.921Z,4.10
2022-09-09T12:09:46.145Z,4.50
2022-09-09T12:15:09.181Z,3.60
2022-09-09T12:20:19.120Z,3.90
2022-09-09T12:25:32.934Z,4.30
2022-09-09T12:30:49.003Z,4.20
2022-09-09T12:35:57.194Z,4.30
2022-09-09T12:40:59.463Z,3.90
2022-09-09T12:46:07.630Z,3.80
2022-09-09T12:51:29.498Z,5.40
2022-09-09T12:56:32.735Z,5.30
2022-09-09T13:01:34.330Z,5.50
2022-09-09T13:06:36.687Z,5.00
2022-09-09T13:16:56.265Z,4.30
2022-09-09T13:21:57.818Z,6.10
2022-09-09T13:27:04.358Z,4.40
2022-09-09T13:32:27.127Z,4.80
2022-09-09T13:37:36.303Z,4.80
2022-09-09T13:42:42.854Z,5.70
2022-09-09T13:47:46.447Z,5.80
2022-09-09T13:52:53.558Z,5.20
2022-09-09T13:58:02.879Z,6.50
2022-09-09T14:03:04.109Z,6.60
2022-09-09T14:08:07.528Z,6.10
2022-09-09T14:13:08.729Z,6.00
2022-09-09T14:18:13.468Z,6.00
2022-09-09T14:23:15.847Z,6.10
2022-09-09T14:28:20.533Z,6.90
2022-09-09T14:33:29.376Z,7.70
2022-09-09T14:38:39.724Z,7.10
2022-09-09T14:43:42.098Z,6.90
2022-09-09T14:48:45.475Z,6.60
2022-09-09T14:53:48.789Z,5.90
2022-09-09T14:58:54.299Z,6.40
2022-09-09T15:04:01.074Z,7.00
2022-09-09T15:09:03.116Z,6.10
2022-09-09T15:14:06.104Z,7.80
2022-09-09T15:19:09.501Z,8.30
2022-09-09T15:24:11.980Z,8.60
2022-09-09T15:29:14.481Z,8.20
2022-09-09T15:34:17.010Z,7.80
2022-09-09T15:39:18.805Z,7.00
2022-09-09T15:44:20.748Z,6.90
2022-09-09T15:49:27.482Z,8.70
2022-09-09T15:54:37.009Z,8.00
2022-09-09T15:59:38.267Z,6.40
2022-09-09T16:04:39.456Z,7.10
2022-09-09T16:09:42.743Z,7.90
2022-09-09T16:14:46.076Z,7.80
2022-09-09T16:19:47.425Z,6.30
2022-09-09T16:24:50.746Z,7.00
2022-09-09T16:29:52.035Z,7.50
2022-09-09T16:34:53.523Z,7.10
2022-09-09T16:39:56.795Z,7.10
2022-09-09T16:45:01.632Z,5.70
2022-09-09T16:50:03.572Z,7.30
2022-09-09T16:55:05.418Z,5.80
2022-09-09T17:00:09.258Z,6.50
2022-09-09T17:05:11.653Z,6.30
2022-09-09T17:10:14.306Z,6.70
2022-09-09T17:15:15.644Z,6.60
2022-09-09T17:20:16.958Z,6.00
2022-09-09T17:25:20.678Z,4.90
2022-09-09T17:30:25.306Z,5.70
2022-09-09T17:35:27.644Z,6.70
2022-09-09T17:40:29.068Z,5.50
2022-09-09T17:45:32.879Z,5.80
2022-09-09T17:50:35.545Z,5.10
2022-09-09T17:55:37.006Z,4.90
2022-09-09T18:00:38.267Z,6.40
2022-09-09T18:15:49.287Z,6.30
2022-09-09T18:21:09.255Z,5.00
2022-09-09T18:26:15.471Z,6.50
2022-09-09T18:31:19.811Z,5.50
2022-09-09T18:36:25.954Z,5.00
2022-09-09T18:41:34.766Z,5.10
2022-09-09T18:46:36.939Z,5.60
2022-09-09T18:51:40.794Z,6.30
2022-09-09T18:56:42.984Z,5.50
2022-09-09T19:01:46.094Z,5.80
2022-09-09T19:06:57.027Z,6.40
2022-09-09T19:11:59.631Z,5.80
2022-09-09T19:17:00.948Z,5.00
2022-09-09T19:22:06.090Z,6.00
2022-09-09T19:27:08.009Z,5.90
2022-09-09T19:37:34.163Z,5.70
2022-09-09T19:42:35.448Z,5.00
2022-09-09T19:47:36.752Z,3.90
2022-09-09T19:52:38.215Z,4.80
2022-09-09T19:57:39.688Z,5.00
2022-09-09T20:02:45.425Z,4.20
2022-09-09T20:07:55.256Z,3.90
2022-09-09T20:12:56.503Z,4.30
2022-09-09T20:17:57.711Z,3.90
2022-09-09T20:22:58.947Z,4.60
2022-09-09T20:33:01.539Z,3.60
2022-09-09T20:38:02.864Z,4.40
2022-09-09T20:43:05.958Z,4.40
2022-09-09T20:48:07.501Z,4.50
2022-09-09T20:53:08.789Z,4.20
2022-09-09T20:58:10.332Z,4.10
2022-09-09T21:03:11.506Z,4.80
2022-09-09T21:08:13.034Z,3.70
2022-09-09T21:18:16.791Z,4.30
2022-09-09T21:23:18.019Z,4.10
2022-09-09T21:28:19.846Z,4.00
2022-09-09T21:33:23.830Z,3.90
2022-09-09T21:38:25.334Z,3.70
2022-09-09T21:43:26.533Z,4.70
2022-09-09T21:53:29.285Z,4.20
2022-09-09T21:58:31.082Z,4.20
2022-09-09T22:03:36.172Z,4.40
2022-09-09T22:08:37.576Z,4.10
2022-09-09T22:13:39.512Z,4.30
2022-09-09T22:18:42.223Z,4.50
2022-09-09T22:23:54.751Z,5.10
2022-09-09T22:28:56.599Z,4.30
2022-09-09T22:33:58.097Z,3.60
2022-09-09T22:38:59.313Z,4.30
2022-09-09T22:44:01.303Z,3.20
2022-09-09T22:49:03.065Z,3.40
2022-09-09T22:54:05.018Z,3.40
2022-09-09T22:59:06.321Z,3.40
2022-09-09T23:04:07.632Z,3.30
2022-09-09T23:09:12.072Z,3.60
2022-09-09T23:14:14.363Z,3.80
2022-09-09T23:19:16.112Z,3.60
2022-09-09T23:24:18.363Z,3.50
2022-09-09T23:29:20.158Z,3.40
2022-09-09T23:34:21.302Z,3.70
2022-09-09T23:44:23.709Z,3.30
2022-09-09T23:49:25.941Z,3.60
2022-09-09T23:54:27.385Z,3.50
2022-09-09T23:59:32.006Z,3.50
